Tibbie, Alabama
Current Conditions -  °F | °C
As of 2:56 PM on Thursday 20 Nov 2014 (Local Time) from KMOB Reporting Station
Broken Clouds Broken Clouds  
Wind Chill: 66°   Ceiling: 5500
Heat Index: 66°   Visibility: 10mi
Dew Point: 45°   Wind: 13mph
Humidity: 47%   Direction: 130°SE
Pressure: 30.21"   Gusts: NA
Location:  31.37°N, 88.25°W
Report Text: KMOB 202056Z 13011KT 10SM BKN055 19/07 A3021 RMK AO2 SLP230 T01890072 56018
Loading
Personal Weather Stations






























Interactive Weather Map New forecast layout! Learn more

10-Day Weather Forecast

Advertisements
Track Severe Weather on mobile